Kokomo, IN

11:36 PM EST on December 27, 2014 (GMT -0500)
Kokomo Municipal | Change Station
CLOSE
Current Station
Airport
Location: Kokomo,
Elevation: 830 ft
Nearby Weather Stations

Elev 830 ft 40.53 °N, 86.06 °W | Updated 21 minutes ago

Overcast
Overcast
34 °F
Feels Like 26 °F
N
10
Wind Variable Wind from West

Today
High -- | Low -- °F
--% Chance of Precip.
Yesterday
High -- | Low -- °F
Precip. -- in
8:06 AM 5:24 PM
Waxing Crescent, 43% visible
Pressure 30.10 in
Visibility 5.0 miles
Clouds Overcast 1400 ft
Windchill 26 °F
Dew Point 28 °F
Humidity 81%
Rainfall 0.27 in
Snow Depth Not available.
UV 0 out of 12
Pollen .10 out of 12
Air Quality Not available.
Flu Activity Not available.
METAR KOKK 280415Z AUTO 28009KT 5SM OVC014 01/M02 A3010 RMK AO1 P0001

More Conditions Fewer Conditions

Pressure 30.10 in
Visibility 5.0 miles
Clouds Overcast 1400 ft
Windchill 26 °F
Dew Point 28 °F
Humidity 81%
Rainfall 0.27 in
Snow Depth Not available.
UV 0 out of 12
Pollen .10 out of 12
Air Quality Not available.
Flu Activity Not available.
METAR KOKK 280415Z AUTO 28009KT 5SM OVC014 01/M02 A3010 RMK AO1 P0001

More Conditions Fewer Conditions

10-Day Weather Forecast

Almanac

Astronomy

Dec. 27, 2014 Rise Set
Actual Time
Civil Twilight
Nautical Twilight
Astronomical Twilight
Moon
Length of Visible Light
Length of Day
Tomorrow will be .
, % of the Moon is Illuminated

Today's Extremes

State Highs State Lows

Community

WunderPhotos

Upload Photos

1,781,192 photos uploaded!

WunderBlogs® & News

Nearby

Air Quality

  Air Quality AQ Index Pollutant
Not available.

Snow Depth

Station Depth Elevation

Earthquake Activity

City Distance Mag. Time & Date
Minimum magnitude displayed is 2.5.

Coastal Water Temperatures

Place Temperature

Nearby Weather Stations